createdAt,value
2018-12-08T00:01:33.784Z,90.20
2018-12-08T00:04:02.919Z,90.10
2018-12-08T00:06:31.643Z,90.00
2018-12-08T00:09:00.199Z,89.40
2018-12-08T00:11:29.451Z,90.00
2018-12-08T00:13:58.363Z,89.60
2018-12-08T00:16:28.054Z,89.40
2018-12-08T00:18:56.743Z,89.00
2018-12-08T00:21:26.982Z,89.50
2018-12-08T00:23:55.838Z,89.30
2018-12-08T00:26:24.987Z,88.70
2018-12-08T00:28:54.596Z,88.00
2018-12-08T00:31:35.146Z,86.80
2018-12-08T00:34:04.875Z,87.40
2018-12-08T00:36:34.056Z,86.80
2018-12-08T00:39:02.717Z,87.20
2018-12-08T00:41:32.291Z,86.10
2018-12-08T00:44:01.712Z,85.70
2018-12-08T00:46:30.340Z,85.80
2018-12-08T00:48:59.735Z,85.50
2018-12-08T00:51:28.584Z,85.30
2018-12-08T00:54:01.472Z,85.00
2018-12-08T00:56:30.340Z,85.40
2018-12-08T00:58:59.866Z,85.00
2018-12-08T01:01:28.625Z,85.50
2018-12-08T01:03:58.112Z,85.70
2018-12-08T01:06:26.794Z,85.90
2018-12-08T01:08:56.265Z,86.10
2018-12-08T01:11:25.336Z,86.30
2018-12-08T01:13:54.148Z,85.70
2018-12-08T01:16:22.954Z,86.10
2018-12-08T01:18:51.694Z,85.60
2018-12-08T01:21:20.607Z,85.50
2018-12-08T01:23:49.412Z,85.70
2018-12-08T01:26:17.974Z,85.50
2018-12-08T01:28:46.841Z,85.30
2018-12-08T01:31:15.563Z,86.80
2018-12-08T01:33:44.864Z,85.60
2018-12-08T01:36:14.431Z,86.00
2018-12-08T01:38:43.892Z,85.90
2018-12-08T01:41:12.814Z,86.20
2018-12-08T01:43:41.644Z,85.40
2018-12-08T01:46:10.460Z,85.70
2018-12-08T01:48:39.537Z,86.00
2018-12-08T01:51:08.597Z,85.50
2018-12-08T01:53:37.317Z,85.50
2018-12-08T01:56:06.836Z,85.70
2018-12-08T01:58:36.320Z,85.50
2018-12-08T02:01:06.056Z,85.20
2018-12-08T02:03:34.743Z,84.90
2018-12-08T02:06:03.573Z,84.20
2018-12-08T02:08:32.450Z,84.70
2018-12-08T02:11:01.240Z,83.30
2018-12-08T02:13:36.792Z,83.00
2018-12-08T02:16:05.700Z,83.30
2018-12-08T02:18:34.328Z,83.30
2018-12-08T02:21:03.240Z,83.40
2018-12-08T02:23:32.329Z,83.40
2018-12-08T02:26:00.892Z,83.70
2018-12-08T02:28:29.860Z,82.50
2018-12-08T02:30:58.422Z,81.70
2018-12-08T02:33:27.272Z,81.70
2018-12-08T02:35:57.027Z,82.40
2018-12-08T02:38:26.766Z,82.40
2018-12-08T02:40:55.620Z,82.40
2018-12-08T02:43:25.163Z,82.00
2018-12-08T02:45:53.854Z,82.00
2018-12-08T02:48:23.345Z,81.40
2018-12-08T02:50:52.765Z,82.00
2018-12-08T02:53:22.495Z,80.20
2018-12-08T02:55:51.315Z,80.00
2018-12-08T02:58:19.889Z,80.40
2018-12-08T03:00:49.305Z,79.00
2018-12-08T03:03:18.778Z,79.10
2018-12-08T03:05:47.781Z,79.30
2018-12-08T03:08:17.047Z,78.40
2018-12-08T03:10:46.403Z,78.40
2018-12-08T03:13:15.449Z,78.50
2018-12-08T03:15:44.357Z,77.60
2018-12-08T03:18:13.231Z,77.70
2018-12-08T03:20:42.539Z,78.40
2018-12-08T03:23:11.740Z,77.80
2018-12-08T03:25:40.570Z,77.80
2018-12-08T03:28:09.148Z,78.00
2018-12-08T03:30:38.808Z,78.50
2018-12-08T03:33:08.225Z,77.60
2018-12-08T03:35:36.829Z,77.70
2018-12-08T03:38:06.038Z,77.40
2018-12-08T03:40:35.958Z,76.80
2018-12-08T03:43:04.736Z,76.30
2018-12-08T03:45:33.383Z,76.80
2018-12-08T03:48:02.603Z,76.30
2018-12-08T03:50:31.822Z,76.60
2018-12-08T03:53:00.756Z,76.40
2018-12-08T03:55:29.326Z,76.00
2018-12-08T03:57:58.095Z,76.60
2018-12-08T04:00:26.781Z,77.00
2018-12-08T04:02:56.125Z,78.20
2018-12-08T04:05:25.081Z,78.80
2018-12-08T04:07:53.677Z,79.80
2018-12-08T04:10:22.651Z,79.90
2018-12-08T04:12:51.204Z,80.00
2018-12-08T04:15:20.930Z,79.40
2018-12-08T04:17:49.744Z,80.20
2018-12-08T04:20:19.232Z,79.70
2018-12-08T04:22:47.838Z,79.80
2018-12-08T04:25:17.329Z,79.00
2018-12-08T04:27:46.665Z,79.40
2018-12-08T04:30:15.371Z,78.90
2018-12-08T04:32:44.368Z,78.80
2018-12-08T04:35:13.468Z,79.90
2018-12-08T04:37:42.044Z,78.40
2018-12-08T04:40:11.167Z,78.60
2018-12-08T04:42:40.795Z,78.30
2018-12-08T04:45:10.476Z,79.10
2018-12-08T04:47:39.187Z,78.90
2018-12-08T04:50:08.529Z,78.90
2018-12-08T04:52:38.274Z,79.30
2018-12-08T04:55:07.574Z,77.70
2018-12-08T04:57:36.264Z,77.90
2018-12-08T05:00:06.281Z,77.50
2018-12-08T05:02:35.208Z,77.80
2018-12-08T05:05:03.981Z,77.30
2018-12-08T05:07:33.054Z,77.40
2018-12-08T05:10:02.040Z,77.00
2018-12-08T05:12:31.478Z,76.20
2018-12-08T05:15:00.141Z,76.70
2018-12-08T05:17:28.904Z,77.40
2018-12-08T05:19:58.344Z,76.90
2018-12-08T05:22:27.669Z,77.10
2018-12-08T05:24:56.336Z,75.80
2018-12-08T05:27:26.077Z,75.30
2018-12-08T05:29:55.410Z,76.10
2018-12-08T05:32:24.679Z,75.40
2018-12-08T05:34:53.515Z,74.60
2018-12-08T05:37:22.860Z,74.30
2018-12-08T05:39:52.178Z,74.30
2018-12-08T05:42:21.177Z,75.00
2018-12-08T05:44:49.893Z,74.40
2018-12-08T05:47:19.324Z,74.60
2018-12-08T05:49:48.152Z,74.00
2018-12-08T05:52:17.513Z,74.20
2018-12-08T05:54:46.989Z,74.20
2018-12-08T05:57:15.800Z,74.40
2018-12-08T05:59:44.686Z,75.00
2018-12-08T06:02:13.867Z,74.70
2018-12-08T06:04:42.571Z,73.70
2018-12-08T06:07:11.501Z,73.10
2018-12-08T06:09:40.289Z,74.30
2018-12-08T06:12:10.845Z,73.00
2018-12-08T06:14:40.148Z,74.00
2018-12-08T06:17:08.994Z,72.90
2018-12-08T06:19:37.775Z,73.40
2018-12-08T06:22:07.140Z,73.30
2018-12-08T06:24:36.017Z,73.40
2018-12-08T06:27:12.092Z,73.50
2018-12-08T06:29:40.937Z,72.60
2018-12-08T06:32:10.222Z,73.10
2018-12-08T06:34:39.288Z,72.80
2018-12-08T06:37:08.082Z,73.00
2018-12-08T06:39:36.793Z,73.00
2018-12-08T06:42:06.368Z,72.50
2018-12-08T06:44:35.076Z,73.00
2018-12-08T06:47:04.576Z,73.00
2018-12-08T06:49:33.752Z,72.90
2018-12-08T06:52:02.520Z,73.00
2018-12-08T06:54:32.341Z,72.70
2018-12-08T06:57:01.161Z,73.00
2018-12-08T06:59:30.303Z,72.10
2018-12-08T07:02:02.695Z,73.30
2018-12-08T07:04:31.640Z,72.20
2018-12-08T07:07:00.453Z,72.20
2018-12-08T07:09:29.357Z,73.20
2018-12-08T07:11:59.156Z,71.80
2018-12-08T07:14:28.423Z,72.20
2018-12-08T07:16:57.032Z,72.20
2018-12-08T07:19:25.821Z,72.70
2018-12-08T07:21:54.804Z,73.20
2018-12-08T07:24:23.771Z,72.00
2018-12-08T07:26:53.230Z,72.50
2018-12-08T07:29:21.822Z,72.70
2018-12-08T07:31:50.640Z,73.00
2018-12-08T07:34:19.464Z,73.50
2018-12-08T07:36:48.606Z,73.10
2018-12-08T07:39:17.488Z,73.30
2018-12-08T07:41:47.257Z,73.30
2018-12-08T07:44:15.867Z,73.30
2018-12-08T07:46:44.661Z,72.90
2018-12-08T07:49:13.489Z,71.20
2018-12-08T07:51:42.399Z,72.20
2018-12-08T07:54:11.202Z,71.70
2018-12-08T07:56:39.907Z,71.90
2018-12-08T07:59:08.735Z,71.80
2018-12-08T08:01:38.247Z,72.10
2018-12-08T08:04:07.237Z,71.60
2018-12-08T08:06:36.169Z,72.20
2018-12-08T08:09:06.762Z,72.10
2018-12-08T08:11:35.475Z,71.90
2018-12-08T08:14:04.569Z,72.30
2018-12-08T08:16:34.652Z,72.10
2018-12-08T08:19:03.476Z,73.40
2018-12-08T08:21:32.425Z,74.00
2018-12-08T08:24:01.175Z,74.50
2018-12-08T08:26:30.585Z,74.80
2018-12-08T08:28:59.541Z,74.90
2018-12-08T08:31:29.088Z,74.90
2018-12-08T08:33:57.849Z,74.60
2018-12-08T08:36:26.843Z,75.00
2018-12-08T08:38:55.632Z,75.10
2018-12-08T08:41:25.037Z,75.30
2018-12-08T08:43:53.908Z,74.60
2018-12-08T08:46:23.190Z,74.70
2018-12-08T08:48:52.637Z,75.00
2018-12-08T08:51:22.164Z,74.20
2018-12-08T08:53:50.802Z,74.70
2018-12-08T08:56:20.371Z,75.00
2018-12-08T08:58:49.821Z,74.30
2018-12-08T09:01:18.679Z,74.50
2018-12-08T09:03:47.601Z,74.60
2018-12-08T09:06:16.421Z,74.40
2018-12-08T09:08:45.984Z,74.40
2018-12-08T09:11:15.697Z,74.00
2018-12-08T09:13:44.624Z,74.10
2018-12-08T09:16:13.227Z,73.60
2018-12-08T09:18:41.886Z,74.20
2018-12-08T09:21:10.852Z,73.40
2018-12-08T09:23:39.868Z,73.90
2018-12-08T09:26:08.559Z,73.00
2018-12-08T09:28:37.357Z,73.80
2018-12-08T09:31:06.024Z,73.80
2018-12-08T09:33:35.883Z,73.30
2018-12-08T09:36:05.092Z,73.20
2018-12-08T09:38:33.927Z,73.10
2018-12-08T09:41:02.932Z,72.60
2018-12-08T09:43:31.611Z,72.50
2018-12-08T09:46:00.809Z,73.40
2018-12-08T09:48:29.689Z,74.90
2018-12-08T09:50:58.413Z,71.50
2018-12-08T09:53:27.945Z,71.70
2018-12-08T09:55:58.765Z,71.40
2018-12-08T09:58:27.464Z,72.30
2018-12-08T10:00:56.402Z,72.10
2018-12-08T10:03:25.104Z,71.80
2018-12-08T10:05:53.757Z,71.70
2018-12-08T10:08:23.396Z,71.50
2018-12-08T10:10:52.149Z,71.40
2018-12-08T10:13:21.419Z,71.70
2018-12-08T10:15:50.977Z,71.40
2018-12-08T10:18:20.526Z,71.80
2018-12-08T10:20:49.868Z,72.40
2018-12-08T10:23:19.297Z,72.70
2018-12-08T10:25:48.242Z,72.00
2018-12-08T10:28:17.896Z,71.90
2018-12-08T10:30:47.295Z,70.00
2018-12-08T10:33:16.126Z,69.80
2018-12-08T10:35:44.893Z,69.80
2018-12-08T10:38:13.892Z,69.90
2018-12-08T10:40:43.362Z,70.30
2018-12-08T10:43:12.972Z,69.50
2018-12-08T10:45:42.148Z,69.70
2018-12-08T10:48:11.110Z,70.30
2018-12-08T10:50:39.853Z,70.10
2018-12-08T10:53:09.067Z,73.70
2018-12-08T10:55:38.946Z,74.30
2018-12-08T10:58:08.295Z,72.80
2018-12-08T11:00:42.536Z,72.00
2018-12-08T11:03:16.381Z,72.70
2018-12-08T11:05:45.588Z,71.40
2018-12-08T11:08:15.246Z,71.40
2018-12-08T11:10:43.885Z,71.70
2018-12-08T11:13:13.427Z,70.60
2018-12-08T11:15:42.853Z,70.70
2018-12-08T11:18:11.533Z,70.30
2018-12-08T11:20:41.083Z,71.00
2018-12-08T11:23:10.577Z,70.40
2018-12-08T11:25:39.660Z,69.00
2018-12-08T11:28:08.633Z,68.20
2018-12-08T11:30:38.309Z,67.40
2018-12-08T11:33:07.422Z,66.80
2018-12-08T11:35:36.012Z,67.20
2018-12-08T11:38:04.874Z,68.00
2018-12-08T11:40:33.516Z,70.30
2018-12-08T11:43:02.977Z,72.30
2018-12-08T11:45:32.509Z,74.70
2018-12-08T11:48:01.489Z,74.70
2018-12-08T11:50:30.760Z,76.10
2018-12-08T11:52:59.382Z,76.40
2018-12-08T11:55:30.330Z,75.90
2018-12-08T11:57:59.391Z,75.30
2018-12-08T12:00:28.500Z,76.90
2018-12-08T12:02:57.341Z,78.00
2018-12-08T12:05:25.973Z,77.70
2018-12-08T12:07:55.065Z,78.30
2018-12-08T12:10:24.057Z,78.70
2018-12-08T12:12:52.733Z,79.30
2018-12-08T12:15:22.286Z,77.90
2018-12-08T12:17:51.215Z,78.70
2018-12-08T12:20:20.034Z,77.40
2018-12-08T12:22:49.945Z,77.50
2018-12-08T12:25:19.791Z,77.00
2018-12-08T12:27:49.547Z,78.10
2018-12-08T12:30:18.980Z,77.30
2018-12-08T12:32:47.920Z,77.80
2018-12-08T12:35:17.559Z,77.70
2018-12-08T12:37:46.471Z,77.30
2018-12-08T12:40:15.352Z,76.80
2018-12-08T12:42:44.332Z,77.30
2018-12-08T12:45:13.434Z,77.20
2018-12-08T12:47:42.217Z,77.00
2018-12-08T12:50:10.878Z,76.80
2018-12-08T12:52:40.442Z,76.70
2018-12-08T12:55:09.263Z,77.50
2018-12-08T12:57:38.132Z,76.90
2018-12-08T13:00:10.858Z,77.50
2018-12-08T13:02:39.645Z,77.10
2018-12-08T13:05:08.768Z,78.00
2018-12-08T13:07:37.673Z,78.20
2018-12-08T13:10:07.446Z,78.90
2018-12-08T13:12:36.574Z,78.70
2018-12-08T13:15:05.878Z,79.70
2018-12-08T13:17:34.961Z,79.80
2018-12-08T13:20:04.523Z,80.20
2018-12-08T13:22:33.450Z,81.00
2018-12-08T13:25:13.240Z,82.20
2018-12-08T13:27:42.847Z,82.80
2018-12-08T13:30:11.731Z,83.40
2018-12-08T13:32:40.293Z,82.10
2018-12-08T13:35:11.467Z,81.70
2018-12-08T13:37:40.313Z,81.00
2018-12-08T13:40:08.915Z,81.20
2018-12-08T13:42:37.568Z,81.20
2018-12-08T13:45:18.760Z,81.40
2018-12-08T13:47:48.134Z,80.60
2018-12-08T13:50:17.005Z,80.00
2018-12-08T13:52:45.984Z,79.70
2018-12-08T13:55:14.817Z,79.50
2018-12-08T13:57:44.429Z,79.90
2018-12-08T14:00:13.557Z,79.60
2018-12-08T14:02:43.439Z,79.20
2018-12-08T14:05:12.219Z,79.50
2018-12-08T14:07:41.038Z,78.10
2018-12-08T14:10:10.164Z,78.80
2018-12-08T14:12:39.620Z,79.50
2018-12-08T14:15:08.771Z,80.80
2018-12-08T14:17:37.740Z,81.40
2018-12-08T14:20:17.647Z,81.60
2018-12-08T14:22:46.460Z,82.20
2018-12-08T14:25:15.142Z,82.50
2018-12-08T14:27:44.373Z,84.40
2018-12-08T14:30:13.420Z,84.70
2018-12-08T14:32:42.863Z,83.90
2018-12-08T14:35:11.739Z,84.50
2018-12-08T14:37:41.106Z,83.70
2018-12-08T14:40:10.480Z,83.80
2018-12-08T14:42:39.180Z,84.20
2018-12-08T14:45:11.707Z,83.90
2018-12-08T14:47:40.376Z,84.00
2018-12-08T14:50:11.240Z,84.60
2018-12-08T14:52:40.182Z,84.70
2018-12-08T14:55:10.144Z,85.00
2018-12-08T14:57:39.136Z,85.00
2018-12-08T15:00:11.726Z,85.70
2018-12-08T15:02:41.243Z,85.70
2018-12-08T15:05:11.691Z,86.80
2018-12-08T15:07:40.397Z,86.50
2018-12-08T15:10:11.738Z,86.00
2018-12-08T15:12:40.705Z,86.20
2018-12-08T15:15:11.086Z,86.40
2018-12-08T15:17:39.835Z,86.50
2018-12-08T15:20:09.752Z,87.00
2018-12-08T15:22:38.817Z,86.60
2018-12-08T15:25:10.061Z,86.90
2018-12-08T15:27:39.747Z,86.50
2018-12-08T15:30:10.214Z,85.70
2018-12-08T15:32:39.143Z,85.00
2018-12-08T15:35:10.157Z,84.00
2018-12-08T15:37:39.886Z,84.30
2018-12-08T15:40:10.249Z,83.20
2018-12-08T15:42:39.898Z,83.40
2018-12-08T15:45:10.772Z,82.90
2018-12-08T15:47:39.733Z,82.40
2018-12-08T15:50:10.380Z,82.40
2018-12-08T15:52:40.109Z,82.30
2018-12-08T15:55:09.563Z,82.50
2018-12-08T15:57:38.835Z,81.70
2018-12-08T16:00:10.641Z,81.60
2018-12-08T16:02:40.120Z,81.70
2018-12-08T16:05:09.805Z,81.40
2018-12-08T16:07:38.520Z,81.20
2018-12-08T16:10:08.641Z,81.30
2018-12-08T16:12:37.500Z,80.90
2018-12-08T16:15:08.438Z,80.80
2018-12-08T16:17:37.434Z,81.20
2018-12-08T16:20:10.340Z,80.80
2018-12-08T16:22:39.574Z,81.00
2018-12-08T16:25:10.115Z,81.30
2018-12-08T16:27:39.505Z,81.40
2018-12-08T16:30:10.268Z,81.20
2018-12-08T16:32:39.608Z,81.30
2018-12-08T16:35:10.903Z,81.20
2018-12-08T16:37:40.841Z,80.70
2018-12-08T16:40:10.266Z,80.30
2018-12-08T16:42:39.589Z,80.20
2018-12-08T16:45:09.248Z,80.30
2018-12-08T16:47:38.067Z,80.20
2018-12-08T16:50:08.853Z,79.60
2018-12-08T16:52:37.826Z,79.60
2018-12-08T16:55:07.040Z,79.70
2018-12-08T16:57:36.181Z,79.90
2018-12-08T17:00:05.149Z,79.50
2018-12-08T17:02:34.183Z,79.80
2018-12-08T17:05:03.657Z,79.60
2018-12-08T17:07:32.887Z,79.30
2018-12-08T17:10:02.261Z,79.70
2018-12-08T17:12:30.869Z,78.80
2018-12-08T17:15:00.670Z,78.50
2018-12-08T17:17:29.330Z,78.80
2018-12-08T17:19:59.026Z,78.40
2018-12-08T17:22:27.972Z,78.20
2018-12-08T17:24:57.036Z,78.50
2018-12-08T17:27:25.933Z,79.00
2018-12-08T17:29:55.168Z,77.90
2018-12-08T17:32:24.631Z,77.80
2018-12-08T17:34:53.551Z,77.50
2018-12-08T17:37:22.789Z,78.20
2018-12-08T17:39:51.852Z,77.60
2018-12-08T17:42:20.769Z,77.50
2018-12-08T17:44:49.710Z,77.80
2018-12-08T17:47:18.486Z,77.90
2018-12-08T17:49:47.435Z,77.60
2018-12-08T17:52:16.075Z,77.80
2018-12-08T17:54:47.886Z,78.20
2018-12-08T17:57:16.733Z,77.90
2018-12-08T17:59:46.053Z,77.70
2018-12-08T18:02:18.251Z,77.40
2018-12-08T18:04:48.005Z,77.80
2018-12-08T18:07:17.345Z,77.60
2018-12-08T18:09:46.499Z,76.90
2018-12-08T18:12:15.603Z,77.00
2018-12-08T18:14:44.754Z,77.40
2018-12-08T18:17:13.484Z,77.30
2018-12-08T18:19:42.936Z,77.00
2018-12-08T18:22:11.663Z,77.30
2018-12-08T18:24:41.256Z,77.40
2018-12-08T18:27:10.190Z,77.40
2018-12-08T18:29:39.191Z,77.50
2018-12-08T18:32:07.810Z,78.10
2018-12-08T18:34:37.432Z,77.90
2018-12-08T18:37:07.714Z,78.30
2018-12-08T18:39:36.484Z,77.50
2018-12-08T18:42:05.643Z,77.40
2018-12-08T18:44:34.255Z,77.60
2018-12-08T18:47:03.014Z,78.20
2018-12-08T18:49:31.740Z,79.40
2018-12-08T18:52:01.609Z,80.00
2018-12-08T18:54:30.548Z,79.80
2018-12-08T18:57:01.547Z,80.10
2018-12-08T18:59:31.265Z,81.30
2018-12-08T19:02:00.607Z,81.80
2018-12-08T19:04:29.833Z,82.10
2018-12-08T19:06:58.453Z,82.20
2018-12-08T19:09:27.572Z,83.00
2018-12-08T19:11:56.431Z,83.00
2018-12-08T19:14:25.156Z,83.40
2018-12-08T19:16:54.255Z,83.30
2018-12-08T19:19:23.244Z,84.00
2018-12-08T19:21:52.081Z,84.00
2018-12-08T19:24:21.162Z,84.30
2018-12-08T19:26:50.801Z,84.80
2018-12-08T19:29:20.329Z,85.30
2018-12-08T19:31:48.957Z,84.90
2018-12-08T19:34:18.112Z,84.90
2018-12-08T19:36:47.040Z,84.90
2018-12-08T19:39:16.338Z,85.50
2018-12-08T19:41:45.340Z,85.60
2018-12-08T19:44:14.221Z,84.90
2018-12-08T19:46:43.332Z,85.00
2018-12-08T19:49:12.825Z,85.20
2018-12-08T19:51:42.309Z,85.20
2018-12-08T19:54:10.914Z,85.30
2018-12-08T19:56:40.258Z,85.40
2018-12-08T19:59:09.129Z,85.80
2018-12-08T20:01:38.524Z,86.10
2018-12-08T20:04:08.324Z,86.80
2018-12-08T20:06:37.701Z,86.80
2018-12-08T20:09:07.863Z,87.90
2018-12-08T20:11:36.930Z,89.20
2018-12-08T20:14:06.324Z,89.10
2018-12-08T20:16:35.381Z,89.60
2018-12-08T20:19:04.466Z,89.40
2018-12-08T20:21:33.360Z,89.50
2018-12-08T20:24:02.642Z,89.40
2018-12-08T20:26:33.709Z,89.70
2018-12-08T20:29:03.624Z,89.80
2018-12-08T20:31:32.585Z,89.80
2018-12-08T20:34:01.309Z,90.00
2018-12-08T20:36:30.295Z,90.20
2018-12-08T20:38:58.973Z,90.30
2018-12-08T20:41:27.723Z,90.50
2018-12-08T20:43:56.413Z,90.50
2018-12-08T20:46:25.987Z,90.60
2018-12-08T20:48:54.989Z,90.70
2018-12-08T20:51:23.771Z,90.70
2018-12-08T20:53:52.676Z,91.20
2018-12-08T20:56:28.002Z,91.00
2018-12-08T20:58:56.812Z,91.20
2018-12-08T21:01:25.729Z,91.20
2018-12-08T21:03:55.834Z,91.10
2018-12-08T21:06:24.703Z,91.10
2018-12-08T21:08:54.314Z,91.20
2018-12-08T21:11:23.080Z,91.20
2018-12-08T21:13:51.776Z,91.40
2018-12-08T21:16:20.733Z,91.50
2018-12-08T21:18:49.529Z,91.40
2018-12-08T21:21:19.160Z,91.40
2018-12-08T21:23:48.038Z,91.20
2018-12-08T21:26:21.805Z,91.20
2018-12-08T21:28:50.743Z,91.20
2018-12-08T21:31:20.385Z,91.10
2018-12-08T21:33:49.138Z,91.00
2018-12-08T21:36:17.742Z,91.00
2018-12-08T21:38:46.628Z,91.20
2018-12-08T21:41:15.537Z,91.20
2018-12-08T21:43:44.417Z,91.10
2018-12-08T21:46:13.348Z,91.30
2018-12-08T21:48:42.123Z,91.10
2018-12-08T21:51:11.182Z,91.10
2018-12-08T21:53:40.067Z,91.20
2018-12-08T21:56:08.687Z,91.10
2018-12-08T21:58:38.794Z,91.10
2018-12-08T22:01:07.876Z,91.10
2018-12-08T22:03:36.796Z,91.00
2018-12-08T22:06:05.778Z,91.10
2018-12-08T22:08:34.578Z,91.10
2018-12-08T22:11:04.469Z,91.00
2018-12-08T22:13:34.091Z,90.90
2018-12-08T22:16:03.241Z,91.40
2018-12-08T22:18:32.464Z,91.60
2018-12-08T22:21:01.372Z,92.10
2018-12-08T22:23:30.976Z,92.50
2018-12-08T22:25:59.861Z,92.80
2018-12-08T22:28:29.121Z,92.90
2018-12-08T22:30:58.885Z,93.30
2018-12-08T22:33:28.277Z,93.40
2018-12-08T22:35:56.939Z,93.40
2018-12-08T22:38:25.861Z,93.40
2018-12-08T22:40:55.632Z,93.00
2018-12-08T22:43:24.428Z,93.30
2018-12-08T22:45:53.211Z,93.00
2018-12-08T22:48:22.572Z,92.90
2018-12-08T22:50:51.833Z,92.50
2018-12-08T22:53:20.772Z,92.50
2018-12-08T22:55:54.140Z,92.30
2018-12-08T22:58:23.227Z,92.20
2018-12-08T23:00:53.181Z,91.90
2018-12-08T23:03:22.450Z,91.90
2018-12-08T23:05:51.373Z,91.50
2018-12-08T23:08:21.735Z,91.40
2018-12-08T23:10:50.470Z,90.90
2018-12-08T23:13:19.348Z,90.50
2018-12-08T23:15:48.367Z,90.50
2018-12-08T23:18:18.049Z,90.10
2018-12-08T23:20:47.501Z,90.00
2018-12-08T23:23:17.212Z,90.00
2018-12-08T23:25:46.569Z,90.00
2018-12-08T23:28:16.250Z,89.50
2018-12-08T23:30:44.860Z,89.50
2018-12-08T23:33:13.837Z,88.50
2018-12-08T23:35:43.628Z,88.80
2018-12-08T23:38:12.548Z,88.10
2018-12-08T23:40:41.396Z,88.10
2018-12-08T23:43:10.245Z,87.40
2018-12-08T23:45:38.954Z,87.60
2018-12-08T23:48:08.387Z,87.70
2018-12-08T23:50:37.113Z,87.00
2018-12-08T23:53:05.900Z,86.90
2018-12-08T23:55:34.714Z,86.70
2018-12-08T23:58:03.306Z,86.10
